Time;durP1;ratioP1;P1;durP2;ratioP2;P2;SDS_P1;SDS_P2;PMS_P1;PMS_P2;Temp;Humidity;BMP_temperature;BMP_pressure;BME280_temperature;BME280_humidity;BME280_pressure;Samples;Min_cycle;Max_cycle;Signal;HPM_P1;HPM_P2
2021/01/30 00:00:14;;;;;;;9.07;5.00;;;-3274.90;94.60;;;;;;5010877;28;20156;-66
2021/01/30 00:02:40;;;;;;;8.85;5.28;;;-3274.90;94.60;;;;;;5013998;28;20513;-66
2021/01/30 00:05:07;;;;;;;10.75;5.55;;;-3274.90;94.60;;;;;;5016636;28;20119;-68
2021/01/30 00:07:32;;;;;;;10.77;5.85;;;-3274.90;94.70;;;;;;5016202;28;20053;-67
2021/01/30 00:09:58;;;;;;;8.80;5.28;;;-3274.90;94.80;;;;;;5018210;28;20133;-69
2021/01/30 00:12:24;;;;;;;10.05;5.43;;;-3274.90;94.90;;;;;;5016464;28;20251;-67
2021/01/30 00:14:49;;;;;;;13.25;6.43;;;-3275.00;95.00;;;;;;5017560;28;20137;-69
2021/01/30 00:17:15;;;;;;;11.05;6.18;;;-3274.90;95.00;;;;;;5015516;28;20041;-69
2021/01/30 00:19:44;;;;;;;10.55;6.47;;;-3275.00;95.10;;;;;;5014848;28;20079;-67
2021/01/30 00:22:13;;;;;;;12.38;6.70;;;-3274.90;95.10;;;;;;5016837;28;20032;-67
2021/01/30 00:24:42;;;;;;;12.25;7.22;;;-3275.00;95.10;;;;;;5003131;28;20033;-69
2021/01/30 00:27:10;;;;;;;10.85;6.93;;;-3274.90;95.00;;;;;;5031421;28;20120;-68
2021/01/30 00:29:36;;;;;;;12.25;6.90;;;-3275.00;95.10;;;;;;5030161;28;20025;-66
2021/01/30 00:32:02;;;;;;;15.73;8.40;;;-3275.00;95.10;;;;;;5033491;28;20375;-67
2021/01/30 00:34:29;;;;;;;14.50;9.00;;;-3275.00;95.20;;;;;;5030520;28;20474;-67
2021/01/30 00:36:56;;;;;;;14.35;8.48;;;-3275.00;95.30;;;;;;5030837;28;20034;-67
2021/01/30 00:39:23;;;;;;;18.58;10.07;;;-3275.10;95.40;;;;;;5029611;28;20041;-67
2021/01/30 00:41:49;;;;;;;15.90;9.43;;;-3275.10;95.40;;;;;;5031596;28;20520;-67
2021/01/30 00:44:16;;;;;;;18.50;10.25;;;-3275.10;95.50;;;;;;5032367;28;20084;-67
2021/01/30 00:46:42;;;;;;;15.15;9.90;;;-3275.20;95.70;;;;;;5031047;28;20033;-67
2021/01/30 00:49:08;;;;;;;17.92;10.88;;;-3275.20;95.70;;;;;;5026998;28;20030;-67
2021/01/30 00:51:34;;;;;;;18.75;10.55;;;-3275.20;95.80;;;;;;5031974;28;20017;-69
2021/01/30 00:53:59;;;;;;;22.10;12.50;;;-3275.20;95.90;;;;;;5032141;28;20648;-66
2021/01/30 00:56:25;;;;;;;18.90;10.88;;;-3275.20;95.90;;;;;;5030839;28;20029;-66
2021/01/30 00:58:51;;;;;;;18.17;10.32;;;-3275.30;96.00;;;;;;5029778;28;20056;-67
2021/01/30 01:01:17;;;;;;;19.02;11.18;;;-3275.30;96.00;;;;;;5030790;28;20025;-67
2021/01/30 01:03:43;;;;;;;18.33;11.27;;;-3275.30;96.00;;;;;;5032552;28;20037;-67
2021/01/30 01:06:09;;;;;;;23.98;11.98;;;-3275.30;96.10;;;;;;5030045;28;20029;-67
2021/01/30 01:11:17;;;;;;;17.80;10.32;;;-3275.30;96.20;;;;;;4992636;28;20062;-65
2021/01/30 01:13:44;;;;;;;19.50;11.35;;;-3275.40;96.20;;;;;;4997848;28;20048;-65
2021/01/30 01:16:10;;;;;;;21.48;11.57;;;-3275.40;96.20;;;;;;4990383;28;20038;-65
2021/01/30 01:18:35;;;;;;;18.77;11.60;;;-3275.40;96.20;;;;;;4990732;28;20109;-66
2021/01/30 01:21:01;;;;;;;19.95;11.57;;;-3275.40;96.20;;;;;;4992299;28;20027;-65
2021/01/30 01:23:26;;;;;;;21.40;11.00;;;-3275.40;96.30;;;;;;4980336;28;20105;-65
2021/01/30 01:25:52;;;;;;;19.85;11.18;;;-3275.40;96.30;;;;;;4989404;28;20030;-65
2021/01/30 01:28:17;;;;;;;16.92;11.13;;;-3275.40;96.30;;;;;;4992076;28;20497;-66
2021/01/30 01:30:43;;;;;;;19.33;11.32;;;-3275.40;96.30;;;;;;4988609;28;20566;-65
2021/01/30 01:33:09;;;;;;;21.65;12.05;;;-3275.40;96.30;;;;;;4990679;28;20027;-65
2021/01/30 01:35:34;;;;;;;22.33;11.90;;;-3275.40;96.40;;;;;;4991059;28;20122;-66
2021/01/30 01:38:01;;;;;;;21.60;12.02;;;-3275.40;96.30;;;;;;4992300;28;20029;-65
2021/01/30 01:40:39;;;;;;;18.20;10.32;;;-3275.40;96.30;;;;;;4990976;28;20053;-66
2021/01/30 01:43:12;;;;;;;22.35;12.27;;;-3275.40;96.40;;;;;;4992715;28;20031;-66
2021/01/30 01:45:39;;;;;;;21.48;11.73;;;-3275.40;96.40;;;;;;4990844;28;20034;-65
2021/01/30 01:48:10;;;;;;;20.23;11.00;;;-3275.40;96.40;;;;;;4993308;28;20510;-65
2021/01/30 01:50:41;;;;;;;20.10;11.20;;;-3275.40;96.40;;;;;;4985643;28;20042;-65
2021/01/30 01:53:31;;;;;;;19.85;11.23;;;-3275.40;96.50;;;;;;4992402;28;20527;-66
2021/01/30 01:56:02;;;;;;;25.65;12.20;;;-3275.40;96.50;;;;;;4988503;28;20121;-65
2021/01/30 01:58:32;;;;;;;18.92;10.95;;;-3275.40;96.50;;;;;;4992447;28;20030;-65
2021/01/30 02:00:58;;;;;;;22.63;11.23;;;-3275.50;96.50;;;;;;4989882;28;20506;-66
2021/01/30 02:03:26;;;;;;;20.98;10.88;;;-3275.40;96.50;;;;;;4993580;28;20066;-65
2021/01/30 02:05:51;;;;;;;19.42;11.13;;;-3275.50;96.50;;;;;;4989224;28;20034;-65
2021/01/30 02:08:20;;;;;;;23.00;12.43;;;-3275.50;96.60;;;;;;5002635;28;20033;-65
2021/01/30 02:10:48;;;;;;;20.75;11.23;;;-3275.50;96.60;;;;;;4991224;28;20124;-65
2021/01/30 02:13:32;;;;;;;22.48;11.77;;;-3275.50;96.60;;;;;;4998923;28;20030;-66
2021/01/30 02:16:12;;;;;;;20.38;11.73;;;-3275.50;96.60;;;;;;4988665;28;20100;-66
2021/01/30 02:19:09;;;;;;;22.95;12.77;;;-3275.60;96.70;;;;;;4998497;28;20034;-66
2021/01/30 02:21:43;;;;;;;20.17;11.75;;;-3275.60;96.70;;;;;;4989706;28;20384;-66
2021/01/30 02:24:55;;;;;;;18.23;11.20;;;-3275.60;96.70;;;;;;4991064;28;20554;-66
2021/01/30 02:27:58;;;;;;;19.17;11.23;;;-3275.60;96.70;;;;;;4985599;28;20029;-66
2021/01/30 02:30:51;;;;;;;22.33;12.38;;;-3275.70;96.70;;;;;;4975826;28;20620;-65
2021/01/30 02:33:41;;;;;;;21.45;12.02;;;-3275.70;96.80;;;;;;4991719;28;20084;-65
2021/01/30 02:36:26;;;;;;;20.75;12.43;;;-3275.80;96.80;;;;;;4997375;28;20101;-65
2021/01/30 02:39:19;;;;;;;19.40;11.23;;;-3275.70;96.70;;;;;;4992168;28;20041;-65
2021/01/30 02:42:13;;;;;;;23.13;12.27;;;-3275.70;96.70;;;;;;4975351;28;20038;-66
2021/01/30 02:44:43;;;;;;;18.50;10.93;;;-3275.70;96.80;;;;;;4990346;28;20038;-66
2021/01/30 02:47:12;;;;;;;21.13;11.68;;;-3275.80;96.80;;;;;;4988115;28;20418;-66
2021/01/30 02:49:43;;;;;;;23.67;12.63;;;-3275.80;96.80;;;;;;4990244;28;20396;-65
2021/01/30 02:52:20;;;;;;;;;;;-3275.80;96.80;;;;;;4992533;28;20061;-65
2021/01/30 02:54:46;;;;;;;19.80;11.63;;;-3275.90;96.90;;;;;;4988253;28;19925;-66
2021/01/30 02:57:15;;;;;;;24.95;12.82;;;-3275.90;96.90;;;;;;5006000;28;20578;-66
2021/01/30 02:59:47;;;;;;;23.13;13.00;;;-3275.90;96.90;;;;;;4990486;28;20042;-65
2021/01/30 03:02:14;;;;;;;22.92;12.93;;;-3275.90;96.90;;;;;;4992622;28;20394;-66
2021/01/30 03:04:40;;;;;;;24.25;13.43;;;-3276.00;96.90;;;;;;4989034;28;20038;-65
2021/01/30 03:07:24;;;;;;;25.83;14.20;;;-3276.00;96.90;;;;;;4991959;28;20053;-65
2021/01/30 03:10:14;;;;;;;24.63;13.15;;;-3276.00;96.90;;;;;;4988665;28;20034;-66
2021/01/30 03:13:07;;;;;;;20.23;11.50;;;-3276.00;96.90;;;;;;4993521;28;20034;-65
2021/01/30 03:15:47;;;;;;;21.35;12.82;;;-3276.00;96.90;;;;;;4987577;28;20041;-65
2021/01/30 03:18:17;;;;;;;21.70;12.98;;;-3276.00;96.90;;;;;;4992786;28;20057;-65
2021/01/30 03:20:46;;;;;;;23.85;12.95;;;-3276.00;96.90;;;;;;4990306;28;20072;-65
2021/01/30 03:23:15;;;;;;;21.15;12.98;;;-3276.10;96.90;;;;;;4988766;28;20395;-65
2021/01/30 03:25:42;;;;;;;20.95;12.25;;;-3276.00;96.90;;;;;;4989818;28;20030;-65
2021/01/30 03:28:11;;;;;;;23.90;12.95;;;-3276.00;96.90;;;;;;4986658;28;20540;-65
2021/01/30 03:30:38;;;;;;;24.42;14.18;;;-3276.10;96.90;;;;;;5008143;28;20048;-66
2021/01/30 03:33:05;;;;;;;23.52;12.77;;;-3276.10;96.90;;;;;;5002668;28;20018;-65
2021/01/30 03:35:32;;;;;;;21.48;12.43;;;-3276.10;96.90;;;;;;4990434;28;20069;-65
2021/01/30 03:37:57;;;;;;;20.58;12.82;;;-3276.10;96.90;;;;;;4992276;28;20034;-65
2021/01/30 03:40:23;;;;;;;21.30;12.10;;;-3276.00;96.80;;;;;;4987869;28;20057;-65
2021/01/30 03:42:49;;;;;;;21.95;12.25;;;-3276.00;96.70;;;;;;4991584;28;20125;-65
2021/01/30 03:45:18;;;;;;;19.13;11.40;;;-3275.90;96.70;;;;;;4990046;28;20031;-65
2021/01/30 03:47:44;;;;;;;22.38;12.32;;;-3275.90;96.80;;;;;;4992229;28;20034;-65
2021/01/30 03:50:11;;;;;;;20.10;12.07;;;-3275.80;96.70;;;;;;4988185;28;20842;-66
2021/01/30 03:52:37;;;;;;;21.45;12.65;;;-3275.80;96.80;;;;;;4990471;28;20033;-66
2021/01/30 03:55:04;;;;;;;21.08;12.45;;;-3275.80;96.80;;;;;;4988901;28;20113;-65
2021/01/30 03:57:29;;;;;;;20.77;12.63;;;-3275.90;96.80;;;;;;4991023;28;20037;-65
2021/01/30 03:59:55;;;;;;;20.65;12.57;;;-3275.80;96.80;;;;;;4993446;28;20368;-65
2021/01/30 04:02:21;;;;;;;25.38;13.73;;;-3275.80;96.80;;;;;;4989068;28;20113;-66
2021/01/30 04:04:47;;;;;;;27.98;13.45;;;-3275.80;96.80;;;;;;4990047;28;20034;-66
2021/01/30 04:07:14;;;;;;;22.88;13.32;;;-3275.90;96.80;;;;;;4989042;28;20026;-65
2021/01/30 04:09:41;;;;;;;22.20;12.98;;;-3275.90;96.80;;;;;;4989628;28;20045;-66
2021/01/30 04:12:07;;;;;;;22.20;13.48;;;-3275.90;96.90;;;;;;4989176;28;20088;-66
2021/01/30 04:14:34;;;;;;;26.98;13.95;;;-3275.90;96.80;;;;;;4987623;28;20053;-66
2021/01/30 04:17:00;;;;;;;27.70;14.48;;;-3276.00;96.80;;;;;;4989511;28;20034;-65
2021/01/30 04:19:26;;;;;;;27.92;14.73;;;-3276.00;96.80;;;;;;4992679;28;20039;-66
2021/01/30 04:21:51;;;;;;;24.88;15.27;;;-3276.00;96.80;;;;;;4988818;28;20039;-66
2021/01/30 04:24:17;;;;;;;26.45;14.70;;;-3276.00;96.70;;;;;;4991393;28;20034;-66
2021/01/30 04:26:47;;;;;;;26.63;15.00;;;-3276.10;96.70;;;;;;4989538;28;20629;-66
2021/01/30 04:29:14;;;;;;;27.50;14.52;;;-3276.10;96.60;;;;;;4999428;28;20518;-66
2021/01/30 04:31:40;;;;;;;27.70;15.85;;;-3276.10;96.60;;;;;;4995306;28;20030;-65
2021/01/30 04:34:06;;;;;;;27.10;15.43;;;-3276.10;96.50;;;;;;4994477;28;20085;-66
2021/01/30 04:36:31;;;;;;;28.50;15.93;;;-3276.10;96.50;;;;;;4988603;28;20050;-65
2021/01/30 04:38:57;;;;;;;24.45;14.50;;;-3276.10;96.50;;;;;;4995057;28;20026;-63
2021/01/30 04:41:54;;;;;;;23.98;14.70;;;-3276.00;96.30;;;;;;4988281;28;20157;-66
2021/01/30 04:44:33;;;;;;;25.48;14.30;;;-3275.90;96.30;;;;;;4992744;28;20030;-66
2021/01/30 04:47:20;;;;;;;24.65;13.98;;;-3275.70;96.10;;;;;;4989532;28;20031;-65
2021/01/30 04:49:51;;;;;;;26.25;14.93;;;-3275.50;96.10;;;;;;4970900;28;20271;-65
2021/01/30 04:52:46;;;;;;;21.60;13.82;;;-3275.40;96.10;;;;;;4987535;28;20050;-66
2021/01/30 04:55:24;;;;;;;26.77;15.00;;;-3275.30;96.20;;;;;;4992992;28;20031;-65
2021/01/30 04:58:00;;;;;;;27.83;15.07;;;-3275.30;96.40;;;;;;4996194;28;20022;-65
2021/01/30 05:00:44;;;;;;;26.90;14.07;;;-3275.20;96.40;;;;;;5007851;28;20452;-65
2021/01/30 05:03:39;;;;;;;26.77;15.70;;;-3275.10;96.50;;;;;;4995093;28;20080;-65
2021/01/30 05:06:13;;;;;;;26.45;15.38;;;-3275.10;96.60;;;;;;4945231;28;20093;-65
2021/01/30 05:08:45;;;;;;;28.63;15.02;;;-3275.10;96.70;;;;;;4987289;28;20018;-65
2021/01/30 05:11:16;;;;;;;33.85;14.10;;;-3275.10;96.80;;;;;;4973217;28;20143;-65
2021/01/30 05:13:50;;;;;;;22.42;14.10;;;-3275.10;96.80;;;;;;4997386;28;20121;-66
2021/01/30 05:16:28;;;;;;;27.27;15.75;;;-3275.10;96.80;;;;;;4991709;28;20038;-66
2021/01/30 05:19:08;;;;;;;26.63;15.82;;;-3275.00;96.70;;;;;;4990348;28;20026;-65
2021/01/30 05:21:33;;;;;;;27.55;14.65;;;-3275.00;96.80;;;;;;4992636;28;20066;-65
2021/01/30 05:23:59;;;;;;;25.23;14.45;;;-3275.00;96.80;;;;;;4988199;28;20050;-65
2021/01/30 05:26:46;;;;;;;29.65;15.70;;;-3274.90;96.80;;;;;;4991627;28;20117;-65
2021/01/30 05:29:57;;;;;;;32.55;17.67;;;-3275.00;97.00;;;;;;4997533;28;20027;-65
2021/01/30 05:32:36;;;;;;;31.67;15.77;;;-3275.10;97.10;;;;;;4980123;28;20431;-65
2021/01/30 05:35:10;;;;;;;33.08;16.83;;;-3275.20;97.20;;;;;;4988198;28;20061;-64
2021/01/30 05:37:46;;;;;;;35.72;17.17;;;-3275.30;97.30;;;;;;4992627;28;20518;-64
2021/01/30 05:40:38;;;;;;;30.92;16.65;;;-3275.30;97.20;;;;;;4997461;28;20113;-64
2021/01/30 05:43:32;;;;;;;36.55;17.98;;;-3275.40;97.20;;;;;;4992462;28;20088;-65
2021/01/30 05:46:00;;;;;;;33.30;17.23;;;-3275.50;97.20;;;;;;4989136;28;20563;-65
2021/01/30 05:48:29;;;;;;;30.95;17.55;;;-3275.50;97.20;;;;;;4991862;28;20169;-64
2021/01/30 05:51:11;;;;;;;33.05;18.65;;;-3275.50;97.10;;;;;;4991407;28;20038;-64
2021/01/30 05:53:37;;;;;;;36.78;18.70;;;-3275.60;97.00;;;;;;4993310;28;20038;-64
2021/01/30 05:56:02;;;;;;;30.90;17.00;;;-3275.60;96.90;;;;;;4992076;28;20018;-65
2021/01/30 05:58:39;;;;;;;36.05;18.63;;;-3275.60;96.80;;;;;;4989323;28;20033;-65
2021/01/30 06:01:16;;;;;;;32.70;17.75;;;-3275.60;96.70;;;;;;4987480;28;20548;-64
2021/01/30 06:04:02;;;;;;;33.05;18.20;;;-3275.60;96.60;;;;;;4992613;28;20507;-64
2021/01/30 06:06:31;;;;;;;32.55;16.90;;;-3275.60;96.60;;;;;;4990492;28;20464;-64
2021/01/30 06:09:17;;;;;;;33.95;17.73;;;-3275.60;96.50;;;;;;4990315;28;20102;-64
2021/01/30 06:11:47;;;;;;;30.40;17.25;;;-3275.60;96.50;;;;;;4987212;28;20035;-64
2021/01/30 06:14:39;;;;;;;29.20;16.75;;;-3275.60;96.30;;;;;;5002538;28;20116;-65
2021/01/30 06:17:30;;;;;;;29.38;17.15;;;-3275.50;96.10;;;;;;4995651;28;20035;-64
2021/01/30 06:20:14;;;;;;;28.75;15.73;;;-3275.50;96.20;;;;;;4989543;28;20038;-64
2021/01/30 06:22:40;;;;;;;27.88;16.67;;;-3275.50;96.10;;;;;;4986419;28;20030;-64
2021/01/30 06:25:26;;;;;;;31.73;17.38;;;-3275.40;96.10;;;;;;4991675;28;20105;-65
2021/01/30 06:27:56;;;;;;;34.10;17.65;;;-3275.40;96.00;;;;;;4990662;28;20062;-65
2021/01/30 06:30:34;;;;;;;29.30;15.68;;;-3275.30;96.00;;;;;;4990990;28;20105;-64
2021/01/30 06:33:03;;;;;;;28.83;15.90;;;-3275.20;95.90;;;;;;4989475;28;20251;-64
2021/01/30 06:35:37;;;;;;;29.90;16.35;;;-3275.20;96.10;;;;;;4970156;28;20026;-65
2021/01/30 06:38:20;;;;;;;29.98;17.27;;;-3275.20;96.20;;;;;;4988589;28;20112;-65
2021/01/30 06:40:52;;;;;;;30.33;17.77;;;-3275.20;96.20;;;;;;4988892;28;20023;-65
2021/01/30 06:43:32;;;;;;;28.52;15.43;;;-3275.20;96.20;;;;;;4986448;28;20053;-65
2021/01/30 06:46:08;;;;;;;25.95;15.23;;;-3275.20;96.20;;;;;;4989823;28;20088;-65
2021/01/30 06:48:44;;;;;;;26.52;15.55;;;-3275.10;96.10;;;;;;4988066;28;20029;-66
2021/01/30 06:51:39;;;;;;;29.48;16.08;;;-3275.10;96.10;;;;;;4990964;28;20444;-65
2021/01/30 06:54:24;;;;;;;25.80;15.20;;;-3275.10;96.20;;;;;;4987031;28;20095;-65
2021/01/30 06:57:12;;;;;;;27.42;14.98;;;-3275.10;96.10;;;;;;4989980;28;20517;-66
2021/01/30 06:59:51;;;;;;;27.42;15.45;;;-3275.10;96.10;;;;;;4986061;28;20038;-65
2021/01/30 07:02:23;;;;;;;27.17;15.60;;;-3275.00;96.10;;;;;;4984609;28;20022;-66
2021/01/30 07:05:14;;;;;;;29.05;15.73;;;-3275.10;96.10;;;;;;4991537;28;20041;-65
2021/01/30 07:07:47;;;;;;;;;;;-3275.10;96.20;;;;;;4982222;28;20041;-65
2021/01/30 07:10:28;;;;;;;27.35;13.75;;;-3275.10;96.10;;;;;;4998391;23;19940;-67
2021/01/30 07:13:47;;;;;;;27.48;14.52;;;-3275.20;96.20;;;;;;5005519;28;20232;-67
2021/01/30 07:16:40;;;;;;;25.25;13.20;;;-3275.30;96.00;;;;;;4984055;28;20040;-66
2021/01/30 07:19:33;;;;;;;25.23;14.23;;;-3275.30;95.90;;;;;;4983666;28;20038;-67
2021/01/30 07:22:07;;;;;;;25.33;12.77;;;-3275.30;95.90;;;;;;5008562;28;20068;-66
2021/01/30 07:24:42;;;;;;;26.70;14.38;;;-3275.20;95.60;;;;;;5010642;28;20041;-66
2021/01/30 07:27:31;;;;;;;24.77;14.60;;;-3275.30;95.60;;;;;;5012417;28;20033;-65
2021/01/30 07:30:03;;;;;;;24.98;14.20;;;-3275.20;95.40;;;;;;5009597;28;20151;-67
2021/01/30 07:32:37;;;;;;;25.17;13.35;;;-3275.30;95.40;;;;;;5008157;28;20029;-67
2021/01/30 07:35:24;;;;;;;24.02;13.65;;;-3275.30;95.40;;;;;;5011750;28;20482;-67
2021/01/30 07:38:01;;;;;;;24.75;14.10;;;-3275.30;95.40;;;;;;5011072;28;20113;-67
2021/01/30 07:40:42;;;;;;;22.25;12.52;;;-3275.40;95.30;;;;;;5010665;28;20036;-67
2021/01/30 07:43:22;;;;;;;22.05;13.48;;;-3275.40;95.10;;;;;;5011116;28;20116;-67
2021/01/30 07:46:02;;;;;;;23.90;13.77;;;-3275.40;95.00;;;;;;5010780;28;20102;-67
2021/01/30 07:48:32;;;;;;;22.50;13.37;;;-3275.50;95.10;;;;;;5010997;28;20326;-66
2021/01/30 07:51:09;;;;;;;25.70;13.90;;;-3275.50;94.80;;;;;;5010131;28;20268;-66
2021/01/30 07:53:35;;;;;;;23.27;13.73;;;-3275.70;94.80;;;;;;5012174;28;20036;-67
2021/01/30 07:56:29;;;;;;;23.35;13.23;;;-3275.60;94.60;;;;;;5010819;28;20029;-67
2021/01/30 07:59:23;;;;;;;24.75;13.73;;;-3275.70;94.30;;;;;;5010360;28;20355;-67
2021/01/30 08:02:06;;;;;;;24.92;13.20;;;-3275.80;94.10;;;;;;5017393;28;20056;-67
2021/01/30 08:04:50;;;;;;;20.95;12.32;;;-3276.00;94.10;;;;;;5029483;28;20501;-67
2021/01/30 08:07:42;;;;;;;22.25;12.82;;;-3276.10;93.70;;;;;;5027648;28;20121;-67
2021/01/30 08:10:24;;;;;;;22.92;12.93;;;-3276.20;93.30;;;;;;5024850;28;20038;-66
2021/01/30 08:13:15;;;;;;;21.70;12.30;;;-3276.20;93.20;;;;;;5019267;28;20084;-66
2021/01/30 08:15:56;;;;;;;18.55;11.48;;;-3276.10;93.10;;;;;;5023025;28;20025;-66
2021/01/30 08:18:37;;;;;;;21.75;14.05;;;-3276.10;93.00;;;;;;5026328;28;20109;-66
2021/01/30 08:21:12;;;;;;;24.05;12.80;;;-3276.10;92.70;;;;;;5029009;28;20037;-66
2021/01/30 08:24:12;;;;;;;24.95;14.30;;;-3276.10;93.10;;;;;;5016244;28;20038;-67
2021/01/30 08:26:44;;;;;;;20.27;12.23;;;-3276.10;92.90;;;;;;5022941;28;20036;-66
2021/01/30 08:29:12;;;;;;;25.05;13.80;;;-3276.20;92.70;;;;;;5024085;28;20391;-66
2021/01/30 08:31:54;;;;;;;19.00;12.57;;;-3276.30;92.00;;;;;;5027733;28;20064;-67
2021/01/30 08:34:19;;;;;;;19.80;12.18;;;-3276.50;92.00;;;;;;5019403;28;20079;-67
2021/01/30 08:36:48;;;;;;;21.02;13.27;;;-3276.50;91.50;;;;;;5025247;28;20100;-67
2021/01/30 08:39:18;;;;;;;19.20;12.32;;;-3276.60;91.10;;;;;;5027359;28;20112;-67
2021/01/30 08:41:48;;;;;;;21.25;11.45;;;-3276.60;90.60;;;;;;5025555;28;20039;-67
2021/01/30 08:44:52;;;;;;;18.95;12.50;;;-3276.50;90.10;;;;;;5014978;28;20092;-66
2021/01/30 08:47:21;;;;;;;17.50;11.15;;;-3276.40;90.80;;;;;;5016186;28;20125;-67
2021/01/30 08:50:16;;;;;;;21.70;12.68;;;-3276.60;90.60;;;;;;5029809;28;20021;-67
2021/01/30 08:52:50;;;;;;;22.60;13.80;;;-3276.50;90.00;;;;;;5020702;28;20053;-66
2021/01/30 08:55:41;;;;;;;24.08;14.50;;;-3276.30;90.40;;;;;;5029860;28;20033;-67
2021/01/30 08:58:07;;;;;;;21.90;13.80;;;-3276.20;90.30;;;;;;5028313;28;20038;-67
2021/01/30 09:00:36;;;;;;;20.60;13.48;;;-3276.10;90.50;;;;;;5025021;28;20497;-67
2021/01/30 09:03:05;;;;;;;23.63;13.35;;;-3275.90;90.70;;;;;;5021347;28;20022;-67
2021/01/30 09:05:33;;;;;;;24.40;13.40;;;-3275.90;90.90;;;;;;5024076;28;20057;-67
2021/01/30 09:08:11;;;;;;;20.35;12.82;;;-3275.80;91.30;;;;;;5021161;28;20071;-67
2021/01/30 09:10:38;;;;;;;19.67;11.30;;;-3275.80;91.60;;;;;;5024189;28;20064;-66
2021/01/30 09:13:17;;;;;;;19.05;12.68;;;-3275.80;91.00;;;;;;5028902;28;20030;-67
2021/01/30 09:15:42;;;;;;;18.73;12.50;;;-3275.70;91.00;;;;;;5017027;28;20511;-67
2021/01/30 09:18:41;;;;;;;20.40;11.52;;;-3275.80;91.30;;;;;;5023237;28;20041;-66
2021/01/30 09:21:34;;;;;;;18.88;11.75;;;-3275.90;91.30;;;;;;5022959;28;20025;-67
2021/01/30 09:24:21;;;;;;;17.10;10.93;;;-3275.80;90.80;;;;;;5023903;28;20486;-67
2021/01/30 09:27:11;;;;;;;21.83;11.35;;;-3275.80;90.60;;;;;;5025703;28;20128;-67
2021/01/30 09:29:45;;;;;;;18.93;10.40;;;-3275.80;90.90;;;;;;5021423;28;20030;-67
2021/01/30 09:32:13;;;;;;;18.80;10.85;;;-3275.70;90.60;;;;;;5030545;28;20284;-66
2021/01/30 09:35:04;;;;;;;17.35;9.77;;;-3275.80;90.40;;;;;;5026958;28;20033;-65
2021/01/30 09:37:40;;;;;;;18.48;10.13;;;-3275.70;90.40;;;;;;5023006;28;20033;-67
2021/01/30 09:40:18;;;;;;;13.82;9.15;;;-3275.70;90.40;;;;;;5030926;28;20033;-67
2021/01/30 09:42:58;;;;;;;13.38;8.73;;;-3275.70;90.20;;;;;;5028579;28;20520;-67
2021/01/30 09:45:24;;;;;;;17.00;10.57;;;-3275.70;89.90;;;;;;5015953;28;20513;-66
2021/01/30 09:47:52;;;;;;;17.80;10.27;;;-3275.80;89.70;;;;;;5025447;28;20076;-66
2021/01/30 09:50:24;;;;;;;15.32;9.68;;;-3275.80;90.00;;;;;;5027635;28;20030;-66
2021/01/30 09:53:12;;;;;;;17.40;9.05;;;-3275.90;89.40;;;;;;5026009;28;20498;-66
2021/01/30 09:55:39;;;;;;;14.45;8.95;;;-3276.00;89.30;;;;;;5025564;28;20041;-67
2021/01/30 09:58:16;;;;;;;14.43;9.38;;;-3276.00;89.00;;;;;;5017568;28;20037;-66
2021/01/30 10:00:45;;;;;;;17.70;9.52;;;-3276.00;89.10;;;;;;5027466;28;20036;-66
2021/01/30 10:03:20;;;;;;;15.57;9.95;;;-3276.20;89.00;;;;;;5029370;28;20025;-66
2021/01/30 10:05:53;;;;;;;14.23;9.05;;;-3276.30;90.10;;;;;;5026948;28;20116;-67
2021/01/30 10:08:33;;;;;;;14.40;9.02;;;-3276.30;88.20;;;;;;5022346;28;20033;-67
2021/01/30 10:11:12;;;;;;;14.25;8.75;;;-3276.40;88.50;;;;;;5020534;28;20045;-66
2021/01/30 10:13:40;;;;;;;16.05;9.88;;;-3276.50;88.20;;;;;;5025280;28;20026;-66
2021/01/30 10:16:14;;;;;;;16.27;9.95;;;-3276.30;88.00;;;;;;5029336;28;20136;-67
2021/01/30 10:18:45;;;;;;;14.88;9.98;;;-3276.50;88.50;;;;;;5030887;28;20494;-66
2021/01/30 10:21:11;;;;;;;15.70;9.98;;;-3276.60;88.20;;;;;;5022063;28;20084;-67
2021/01/30 10:23:45;;;;;;;13.43;8.43;;;-3276.70;88.20;;;;;;5030014;28;20087;-67
2021/01/30 10:26:18;;;;;;;17.60;10.18;;;-3276.70;87.50;;;;;;5028049;28;20384;-66
2021/01/30 10:28:57;;;;;;;18.83;10.32;;;0.00;87.80;;;;;;5023606;28;20403;-67
2021/01/30 10:31:31;;;;;;;17.08;9.68;;;0.10;87.10;;;;;;5019396;28;20025;-69
2021/01/30 10:34:15;;;;;;;18.88;9.77;;;0.10;86.10;;;;;;5028559;28;20063;-67
2021/01/30 10:36:43;;;;;;;15.18;9.80;;;0.10;85.70;;;;;;5019229;28;20044;-66
2021/01/30 10:39:09;;;;;;;16.98;9.82;;;0.40;86.60;;;;;;5023932;28;20163;-66
2021/01/30 10:41:34;;;;;;;14.98;9.32;;;0.60;85.20;;;;;;5024010;28;20112;-66
2021/01/30 10:44:04;;;;;;;15.43;9.75;;;0.70;85.50;;;;;;5021085;28;20215;-66
2021/01/30 10:46:40;;;;;;;16.70;9.65;;;0.70;84.20;;;;;;5022948;28;20034;-67
2021/01/30 10:49:20;;;;;;;14.45;9.00;;;0.90;85.20;;;;;;5027920;28;20108;-66
2021/01/30 10:51:46;;;;;;;15.70;10.30;;;0.90;85.00;;;;;;5027292;28;20063;-66
2021/01/30 10:54:27;;;;;;;14.52;9.27;;;0.80;85.60;;;;;;5019541;28;20025;-67
2021/01/30 10:57:15;;;;;;;14.90;10.00;;;0.80;85.90;;;;;;5024021;28;20029;-66
2021/01/30 10:59:47;;;;;;;16.90;9.95;;;0.80;85.50;;;;;;5020313;28;20426;-66
2021/01/30 11:02:31;;;;;;;14.82;9.32;;;0.90;85.10;;;;;;5009663;28;20092;-66
2021/01/30 11:05:28;;;;;;;15.45;9.23;;;1.00;84.10;;;;;;5022077;28;20109;-67
2021/01/30 11:08:01;;;;;;;17.20;8.95;;;1.30;84.00;;;;;;5021107;28;20057;-67
2021/01/30 11:10:48;;;;;;;14.70;9.13;;;1.60;83.40;;;;;;5028281;28;20041;-66
2021/01/30 11:13:24;;;;;;;16.17;10.05;;;1.50;84.10;;;;;;5016788;28;20155;-67
2021/01/30 11:16:01;;;;;;;14.40;8.40;;;1.90;85.10;;;;;;5025751;28;20176;-66
2021/01/30 11:18:27;;;;;;;12.55;8.20;;;2.00;83.20;;;;;;5026823;28;20036;-66
2021/01/30 11:20:52;;;;;;;11.93;8.00;;;1.70;81.30;;;;;;5017838;28;20029;-67
2021/01/30 11:23:41;;;;;;;12.98;8.35;;;1.90;82.60;;;;;;5022096;28;20398;-66
2021/01/30 11:26:15;;;;;;;11.73;7.45;;;2.00;82.70;;;;;;5021358;28;20084;-66
2021/01/30 11:28:40;;;;;;;12.18;7.68;;;2.00;80.70;;;;;;5018593;28;20033;-65
2021/01/30 11:31:08;;;;;;;13.35;8.27;;;1.80;81.50;;;;;;5026582;28;20026;-66
2021/01/30 11:33:34;;;;;;;14.45;8.32;;;1.90;84.10;;;;;;5018442;28;20029;-65
2021/01/30 11:36:00;;;;;;;13.02;8.32;;;1.90;82.80;;;;;;5023462;28;20063;-66
2021/01/30 11:38:27;;;;;;;11.05;7.43;;;1.90;81.30;;;;;;5025108;28;20030;-66
2021/01/30 11:40:55;;;;;;;14.70;8.68;;;2.10;81.10;;;;;;5027615;28;20058;-66
2021/01/30 11:43:21;;;;;;;12.27;7.72;;;2.30;80.50;;;;;;5014862;28;20026;-67
2021/01/30 11:45:48;;;;;;;14.65;8.63;;;2.60;82.40;;;;;;5019401;28;20057;-66
2021/01/30 11:48:15;;;;;;;10.95;7.30;;;2.40;81.50;;;;;;5014053;28;20498;-66
2021/01/30 11:50:42;;;;;;;11.52;7.50;;;2.20;80.20;;;;;;5011574;28;20506;-66
2021/01/30 11:53:12;;;;;;;11.30;7.22;;;2.00;80.70;;;;;;5018396;28;20256;-66
2021/01/30 11:55:39;;;;;;;12.88;8.38;;;1.90;81.10;;;;;;5026823;28;20129;-66
2021/01/30 11:58:05;;;;;;;15.90;9.23;;;1.70;80.70;;;;;;5022894;28;20033;-66
2021/01/30 12:00:31;;;;;;;14.38;9.65;;;1.50;82.20;;;;;;5026028;28;20037;-67
2021/01/30 12:02:59;;;;;;;16.15;9.55;;;1.40;82.50;;;;;;5028111;28;20049;-67
2021/01/30 12:05:25;;;;;;;18.00;12.23;;;1.40;83.20;;;;;;5033080;28;20079;-67
2021/01/30 12:07:50;;;;;;;16.77;11.20;;;1.10;83.10;;;;;;5018726;28;20316;-66
2021/01/30 12:10:16;;;;;;;17.80;11.45;;;1.40;83.70;;;;;;5051335;28;20030;-66
2021/01/30 12:12:41;;;;;;;14.77;9.63;;;1.40;83.10;;;;;;5048939;28;20163;-67
2021/01/30 12:15:08;;;;;;;16.35;10.82;;;1.50;81.90;;;;;;5050838;28;20025;-66
2021/01/30 12:17:42;;;;;;;15.45;10.48;;;1.40;82.20;;;;;;5048928;28;20024;-66
2021/01/30 12:20:14;;;;;;;20.10;12.20;;;1.50;82.60;;;;;;5032729;28;20021;-67
2021/01/30 12:22:39;;;;;;;15.02;9.52;;;1.30;81.90;;;;;;5048061;28;20486;-67
2021/01/30 12:25:07;;;;;;;14.27;9.82;;;1.30;82.70;;;;;;5049537;28;20082;-67
2021/01/30 12:27:33;;;;;;;14.75;9.55;;;1.20;83.20;;;;;;5041061;28;20032;-66
2021/01/30 12:29:59;;;;;;;15.00;10.57;;;1.10;83.00;;;;;;5032040;28;20033;-66
2021/01/30 12:32:25;;;;;;;19.83;13.75;;;0.80;84.30;;;;;;5043412;28;20025;-66
2021/01/30 12:34:51;;;;;;;15.43;10.13;;;0.90;84.70;;;;;;5043789;28;20031;-66
2021/01/30 12:37:17;;;;;;;14.73;9.93;;;1.00;83.90;;;;;;5048411;28;20542;-67
2021/01/30 12:39:42;;;;;;;17.17;10.13;;;1.10;83.70;;;;;;5045289;28;20029;-65
2021/01/30 12:42:08;;;;;;;14.25;9.57;;;1.10;84.00;;;;;;5042053;28;20124;-66
2021/01/30 12:44:34;;;;;;;14.27;9.93;;;1.20;83.70;;;;;;5049473;28;20444;-67